sensor_id;sensor_type;location;lat;lon;timestamp;P1;durP1;ratioP1;P2;durP2;ratioP2
7076;SDS011;3579;48.956;9.154;2023-07-13T00:00:25;1.77;;;1.57;;
7076;SDS011;3579;48.956;9.154;2023-07-13T00:02:52;2.30;;;2.10;;
7076;SDS011;3579;48.956;9.154;2023-07-13T00:05:21;2.50;;;1.90;;
7076;SDS011;3579;48.956;9.154;2023-07-13T00:07:48;2.10;;;1.90;;
7076;SDS011;3579;48.956;9.154;2023-07-13T00:10:18;2.57;;;2.00;;
7076;SDS011;3579;48.956;9.154;2023-07-13T00:12:44;2.50;;;2.13;;
7076;SDS011;3579;48.956;9.154;2023-07-13T00:15:12;2.10;;;1.90;;
7076;SDS011;3579;48.956;9.154;2023-07-13T00:17:52;2.13;;;1.93;;
7076;SDS011;3579;48.956;9.154;2023-07-13T00:20:20;2.30;;;2.10;;
7076;SDS011;3579;48.956;9.154;2023-07-13T00:22:48;1.87;;;1.70;;
7076;SDS011;3579;48.956;9.154;2023-07-13T00:25:15;2.30;;;1.83;;
7076;SDS011;3579;48.956;9.154;2023-07-13T00:27:41;2.30;;;1.90;;
7076;SDS011;3579;48.956;9.154;2023-07-13T00:30:09;2.37;;;1.90;;
7076;SDS011;3579;48.956;9.154;2023-07-13T00:32:35;2.63;;;2.10;;
7076;SDS011;3579;48.956;9.154;2023-07-13T00:35:03;2.13;;;1.93;;
7076;SDS011;3579;48.956;9.154;2023-07-13T00:37:30;2.30;;;2.10;;
7076;SDS011;3579;48.956;9.154;2023-07-13T00:39:56;2.33;;;2.13;;
7076;SDS011;3579;48.956;9.154;2023-07-13T00:42:22;2.57;;;2.10;;
7076;SDS011;3579;48.956;9.154;2023-07-13T00:45:02;2.23;;;2.03;;
7076;SDS011;3579;48.956;9.154;2023-07-13T00:47:37;2.10;;;1.90;;
7076;SDS011;3579;48.956;9.154;2023-07-13T00:50:08;2.53;;;1.90;;
7076;SDS011;3579;48.956;9.154;2023-07-13T00:52:38;2.10;;;1.90;;
7076;SDS011;3579;48.956;9.154;2023-07-13T00:55:06;2.23;;;2.03;;
7076;SDS011;3579;48.956;9.154;2023-07-13T00:57:34;2.00;;;1.80;;
7076;SDS011;3579;48.956;9.154;2023-07-13T01:00:01;2.07;;;1.87;;
7076;SDS011;3579;48.956;9.154;2023-07-13T01:02:37;1.70;;;1.60;;
7076;SDS011;3579;48.956;9.154;2023-07-13T01:05:11;2.87;;;2.20;;
7076;SDS011;3579;48.956;9.154;2023-07-13T01:07:41;2.97;;;2.17;;
7076;SDS011;3579;48.956;9.154;2023-07-13T01:10:10;2.87;;;2.00;;
7076;SDS011;3579;48.956;9.154;2023-07-13T01:12:37;2.80;;;1.93;;
7076;SDS011;3579;48.956;9.154;2023-07-13T01:15:04;2.23;;;1.83;;
7076;SDS011;3579;48.956;9.154;2023-07-13T01:17:31;2.53;;;2.03;;
7076;SDS011;3579;48.956;9.154;2023-07-13T01:19:59;2.30;;;1.73;;
7076;SDS011;3579;48.956;9.154;2023-07-13T01:22:25;2.20;;;2.00;;
7076;SDS011;3579;48.956;9.154;2023-07-13T01:24:52;2.00;;;1.77;;
7076;SDS011;3579;48.956;9.154;2023-07-13T01:27:23;2.20;;;2.00;;
7076;SDS011;3579;48.956;9.154;2023-07-13T01:29:51;2.20;;;2.00;;
7076;SDS011;3579;48.956;9.154;2023-07-13T01:32:20;2.10;;;1.90;;
7076;SDS011;3579;48.956;9.154;2023-07-13T01:34:52;1.80;;;1.70;;
7076;SDS011;3579;48.956;9.154;2023-07-13T01:37:23;2.10;;;1.87;;
7076;SDS011;3579;48.956;9.154;2023-07-13T01:39:50;1.77;;;1.67;;
7076;SDS011;3579;48.956;9.154;2023-07-13T01:42:17;1.70;;;1.60;;
7076;SDS011;3579;48.956;9.154;2023-07-13T01:44:43;1.83;;;1.70;;
7076;SDS011;3579;48.956;9.154;2023-07-13T01:47:09;2.10;;;1.90;;
7076;SDS011;3579;48.956;9.154;2023-07-13T01:49:36;2.17;;;1.70;;
7076;SDS011;3579;48.956;9.154;2023-07-13T01:52:03;1.90;;;1.70;;
7076;SDS011;3579;48.956;9.154;2023-07-13T01:54:29;1.80;;;1.70;;
7076;SDS011;3579;48.956;9.154;2023-07-13T01:56:55;2.00;;;1.73;;
7076;SDS011;3579;48.956;9.154;2023-07-13T01:59:21;2.33;;;1.80;;
7076;SDS011;3579;48.956;9.154;2023-07-13T02:01:47;1.90;;;1.80;;
7076;SDS011;3579;48.956;9.154;2023-07-13T02:04:13;1.87;;;1.70;;
7076;SDS011;3579;48.956;9.154;2023-07-13T02:06:39;2.00;;;1.80;;
7076;SDS011;3579;48.956;9.154;2023-07-13T02:09:05;2.07;;;1.87;;
7076;SDS011;3579;48.956;9.154;2023-07-13T02:11:32;1.80;;;1.70;;
7076;SDS011;3579;48.956;9.154;2023-07-13T02:13:59;1.70;;;1.60;;
7076;SDS011;3579;48.956;9.154;2023-07-13T02:16:29;2.00;;;1.70;;
7076;SDS011;3579;48.956;9.154;2023-07-13T02:18:56;1.97;;;1.77;;
7076;SDS011;3579;48.956;9.154;2023-07-13T02:21:23;2.27;;;1.80;;
7076;SDS011;3579;48.956;9.154;2023-07-13T02:23:49;2.00;;;1.80;;
7076;SDS011;3579;48.956;9.154;2023-07-13T02:26:15;1.60;;;1.50;;
7076;SDS011;3579;48.956;9.154;2023-07-13T02:28:41;1.90;;;1.70;;
7076;SDS011;3579;48.956;9.154;2023-07-13T02:31:08;2.13;;;1.93;;
7076;SDS011;3579;48.956;9.154;2023-07-13T02:33:36;2.23;;;1.70;;
7076;SDS011;3579;48.956;9.154;2023-07-13T02:36:02;1.60;;;1.50;;
7076;SDS011;3579;48.956;9.154;2023-07-13T02:38:31;1.77;;;1.67;;
7076;SDS011;3579;48.956;9.154;2023-07-13T02:40:59;2.13;;;1.70;;
7076;SDS011;3579;48.956;9.154;2023-07-13T02:43:25;2.00;;;1.80;;
7076;SDS011;3579;48.956;9.154;2023-07-13T02:45:51;1.80;;;1.70;;
7076;SDS011;3579;48.956;9.154;2023-07-13T02:48:17;1.77;;;1.67;;
7076;SDS011;3579;48.956;9.154;2023-07-13T02:50:44;1.83;;;1.63;;
7076;SDS011;3579;48.956;9.154;2023-07-13T02:53:10;1.90;;;1.70;;
7076;SDS011;3579;48.956;9.154;2023-07-13T02:55:36;1.70;;;1.60;;
7076;SDS011;3579;48.956;9.154;2023-07-13T02:58:02;1.70;;;1.60;;
7076;SDS011;3579;48.956;9.154;2023-07-13T03:00:29;2.03;;;1.80;;
7076;SDS011;3579;48.956;9.154;2023-07-13T03:02:55;1.70;;;1.60;;
7076;SDS011;3579;48.956;9.154;2023-07-13T03:05:23;1.80;;;1.70;;
7076;SDS011;3579;48.956;9.154;2023-07-13T03:07:49;1.70;;;1.50;;
7076;SDS011;3579;48.956;9.154;2023-07-13T03:10:15;1.57;;;1.47;;
7076;SDS011;3579;48.956;9.154;2023-07-13T03:12:42;2.00;;;1.77;;
7076;SDS011;3579;48.956;9.154;2023-07-13T03:15:08;2.13;;;1.70;;
7076;SDS011;3579;48.956;9.154;2023-07-13T03:17:34;1.93;;;1.67;;
7076;SDS011;3579;48.956;9.154;2023-07-13T03:20:00;3.13;;;1.70;;
7076;SDS011;3579;48.956;9.154;2023-07-13T03:22:26;1.70;;;1.60;;
7076;SDS011;3579;48.956;9.154;2023-07-13T03:24:54;2.17;;;1.80;;
7076;SDS011;3579;48.956;9.154;2023-07-13T03:27:20;1.80;;;1.70;;
7076;SDS011;3579;48.956;9.154;2023-07-13T03:29:46;1.70;;;1.60;;
7076;SDS011;3579;48.956;9.154;2023-07-13T03:32:12;1.87;;;1.73;;
7076;SDS011;3579;48.956;9.154;2023-07-13T03:34:38;1.90;;;1.60;;
7076;SDS011;3579;48.956;9.154;2023-07-13T03:37:04;1.83;;;1.67;;
7076;SDS011;3579;48.956;9.154;2023-07-13T03:39:30;2.03;;;1.70;;
7076;SDS011;3579;48.956;9.154;2023-07-13T03:41:56;1.73;;;1.60;;
7076;SDS011;3579;48.956;9.154;2023-07-13T03:44:22;1.70;;;1.60;;
7076;SDS011;3579;48.956;9.154;2023-07-13T03:46:48;1.90;;;1.70;;
7076;SDS011;3579;48.956;9.154;2023-07-13T03:49:14;1.80;;;1.70;;
7076;SDS011;3579;48.956;9.154;2023-07-13T03:51:41;1.80;;;1.70;;
7076;SDS011;3579;48.956;9.154;2023-07-13T03:54:07;1.80;;;1.60;;
7076;SDS011;3579;48.956;9.154;2023-07-13T03:56:33;2.80;;;2.13;;
7076;SDS011;3579;48.956;9.154;2023-07-13T03:58:59;1.67;;;1.57;;
7076;SDS011;3579;48.956;9.154;2023-07-13T04:01:25;1.83;;;1.63;;
7076;SDS011;3579;48.956;9.154;2023-07-13T04:03:52;1.70;;;1.60;;
7076;SDS011;3579;48.956;9.154;2023-07-13T04:06:20;1.80;;;1.60;;
7076;SDS011;3579;48.956;9.154;2023-07-13T04:08:50;2.07;;;1.67;;
7076;SDS011;3579;48.956;9.154;2023-07-13T04:11:18;2.90;;;1.90;;
7076;SDS011;3579;48.956;9.154;2023-07-13T04:13:46;1.83;;;1.60;;
7076;SDS011;3579;48.956;9.154;2023-07-13T04:16:13;1.77;;;1.60;;
7076;SDS011;3579;48.956;9.154;2023-07-13T04:18:40;2.27;;;1.63;;
7076;SDS011;3579;48.956;9.154;2023-07-13T04:21:06;1.70;;;1.60;;
7076;SDS011;3579;48.956;9.154;2023-07-13T04:23:34;1.73;;;1.63;;
7076;SDS011;3579;48.956;9.154;2023-07-13T04:26:01;2.13;;;1.60;;
7076;SDS011;3579;48.956;9.154;2023-07-13T04:28:27;1.90;;;1.70;;
7076;SDS011;3579;48.956;9.154;2023-07-13T04:30:53;1.80;;;1.70;;
7076;SDS011;3579;48.956;9.154;2023-07-13T04:33:20;1.80;;;1.60;;
7076;SDS011;3579;48.956;9.154;2023-07-13T04:35:50;2.30;;;1.80;;
7076;SDS011;3579;48.956;9.154;2023-07-13T04:38:22;1.73;;;1.63;;
7076;SDS011;3579;48.956;9.154;2023-07-13T04:40:50;2.17;;;1.57;;
7076;SDS011;3579;48.956;9.154;2023-07-13T04:43:16;3.20;;;1.70;;
7076;SDS011;3579;48.956;9.154;2023-07-13T04:45:43;5.03;;;2.00;;
7076;SDS011;3579;48.956;9.154;2023-07-13T04:48:10;2.03;;;1.63;;
7076;SDS011;3579;48.956;9.154;2023-07-13T04:50:36;1.90;;;1.70;;
7076;SDS011;3579;48.956;9.154;2023-07-13T04:53:02;2.70;;;1.80;;
7076;SDS011;3579;48.956;9.154;2023-07-13T04:55:29;2.07;;;1.73;;
7076;SDS011;3579;48.956;9.154;2023-07-13T04:57:56;4.17;;;1.80;;
7076;SDS011;3579;48.956;9.154;2023-07-13T05:00:24;3.03;;;1.80;;
7076;SDS011;3579;48.956;9.154;2023-07-13T05:02:50;5.13;;;2.00;;
7076;SDS011;3579;48.956;9.154;2023-07-13T05:05:16;3.43;;;1.80;;
7076;SDS011;3579;48.956;9.154;2023-07-13T05:07:42;3.17;;;2.03;;
7076;SDS011;3579;48.956;9.154;2023-07-13T05:10:09;3.03;;;1.70;;
7076;SDS011;3579;48.956;9.154;2023-07-13T05:12:35;4.03;;;1.80;;
7076;SDS011;3579;48.956;9.154;2023-07-13T05:15:01;3.30;;;1.83;;
7076;SDS011;3579;48.956;9.154;2023-07-13T05:17:28;4.03;;;1.77;;
7076;SDS011;3579;48.956;9.154;2023-07-13T05:19:54;2.40;;;1.73;;
7076;SDS011;3579;48.956;9.154;2023-07-13T05:22:20;4.57;;;1.90;;
7076;SDS011;3579;48.956;9.154;2023-07-13T05:24:46;3.17;;;1.83;;
7076;SDS011;3579;48.956;9.154;2023-07-13T05:27:12;3.93;;;1.80;;
7076;SDS011;3579;48.956;9.154;2023-07-13T05:29:38;2.77;;;1.90;;
7076;SDS011;3579;48.956;9.154;2023-07-13T05:32:05;6.90;;;1.97;;
7076;SDS011;3579;48.956;9.154;2023-07-13T05:34:31;4.27;;;1.93;;
7076;SDS011;3579;48.956;9.154;2023-07-13T05:36:57;4.30;;;2.10;;
7076;SDS011;3579;48.956;9.154;2023-07-13T05:39:23;4.90;;;2.00;;
7076;SDS011;3579;48.956;9.154;2023-07-13T05:41:50;7.30;;;2.00;;
7076;SDS011;3579;48.956;9.154;2023-07-13T05:44:16;3.93;;;2.00;;
7076;SDS011;3579;48.956;9.154;2023-07-13T05:46:42;5.50;;;1.90;;
7076;SDS011;3579;48.956;9.154;2023-07-13T05:49:08;3.53;;;1.63;;
7076;SDS011;3579;48.956;9.154;2023-07-13T05:51:34;3.17;;;1.90;;
7076;SDS011;3579;48.956;9.154;2023-07-13T05:54:00;3.17;;;1.97;;
7076;SDS011;3579;48.956;9.154;2023-07-13T05:56:26;4.23;;;1.90;;
7076;SDS011;3579;48.956;9.154;2023-07-13T05:58:52;5.83;;;2.10;;
7076;SDS011;3579;48.956;9.154;2023-07-13T06:01:18;6.40;;;2.10;;
7076;SDS011;3579;48.956;9.154;2023-07-13T06:03:47;6.40;;;2.00;;
7076;SDS011;3579;48.956;9.154;2023-07-13T06:06:13;3.17;;;1.87;;
7076;SDS011;3579;48.956;9.154;2023-07-13T06:08:42;4.10;;;1.90;;
7076;SDS011;3579;48.956;9.154;2023-07-13T06:11:14;7.77;;;2.37;;
7076;SDS011;3579;48.956;9.154;2023-07-13T06:13:41;5.33;;;2.30;;
7076;SDS011;3579;48.956;9.154;2023-07-13T06:16:07;10.40;;;2.43;;
7076;SDS011;3579;48.956;9.154;2023-07-13T06:18:34;9.80;;;2.80;;
7076;SDS011;3579;48.956;9.154;2023-07-13T06:21:05;5.03;;;2.13;;
7076;SDS011;3579;48.956;9.154;2023-07-13T06:23:33;6.50;;;2.03;;
7076;SDS011;3579;48.956;9.154;2023-07-13T06:25:59;4.87;;;2.27;;
7076;SDS011;3579;48.956;9.154;2023-07-13T06:28:25;6.80;;;2.30;;
7076;SDS011;3579;48.956;9.154;2023-07-13T06:30:51;5.53;;;2.30;;
7076;SDS011;3579;48.956;9.154;2023-07-13T06:33:17;4.93;;;1.73;;
7076;SDS011;3579;48.956;9.154;2023-07-13T06:35:43;4.20;;;2.00;;
7076;SDS011;3579;48.956;9.154;2023-07-13T06:38:09;4.63;;;2.33;;
7076;SDS011;3579;48.956;9.154;2023-07-13T06:40:35;4.93;;;2.20;;
7076;SDS011;3579;48.956;9.154;2023-07-13T06:43:01;9.37;;;2.77;;
7076;SDS011;3579;48.956;9.154;2023-07-13T06:45:27;5.00;;;2.00;;
7076;SDS011;3579;48.956;9.154;2023-07-13T06:47:53;6.33;;;2.17;;
7076;SDS011;3579;48.956;9.154;2023-07-13T06:50:19;6.87;;;2.20;;
7076;SDS011;3579;48.956;9.154;2023-07-13T06:52:45;8.37;;;2.40;;
7076;SDS011;3579;48.956;9.154;2023-07-13T06:55:11;6.53;;;2.53;;
7076;SDS011;3579;48.956;9.154;2023-07-13T06:57:43;6.63;;;2.00;;
7076;SDS011;3579;48.956;9.154;2023-07-13T07:00:50;6.83;;;2.07;;
7076;SDS011;3579;48.956;9.154;2023-07-13T07:03:17;4.97;;;2.37;;
7076;SDS011;3579;48.956;9.154;2023-07-13T07:05:43;6.60;;;1.80;;
7076;SDS011;3579;48.956;9.154;2023-07-13T07:08:09;7.37;;;2.10;;
7076;SDS011;3579;48.956;9.154;2023-07-13T07:10:36;10.70;;;2.20;;
7076;SDS011;3579;48.956;9.154;2023-07-13T07:13:02;5.00;;;2.10;;
7076;SDS011;3579;48.956;9.154;2023-07-13T07:15:28;4.93;;;1.80;;
7076;SDS011;3579;48.956;9.154;2023-07-13T07:17:55;3.67;;;2.07;;
7076;SDS011;3579;48.956;9.154;2023-07-13T07:20:21;5.10;;;2.10;;
7076;SDS011;3579;48.956;9.154;2023-07-13T07:22:47;6.27;;;1.97;;
7076;SDS011;3579;48.956;9.154;2023-07-13T07:25:13;5.57;;;1.80;;
7076;SDS011;3579;48.956;9.154;2023-07-13T07:27:40;10.37;;;2.03;;
7076;SDS011;3579;48.956;9.154;2023-07-13T07:30:06;4.97;;;1.73;;
7076;SDS011;3579;48.956;9.154;2023-07-13T07:32:32;4.73;;;1.90;;
7076;SDS011;3579;48.956;9.154;2023-07-13T07:34:58;4.23;;;1.90;;
7076;SDS011;3579;48.956;9.154;2023-07-13T07:37:24;2.97;;;1.77;;
7076;SDS011;3579;48.956;9.154;2023-07-13T07:39:50;5.93;;;1.53;;
7076;SDS011;3579;48.956;9.154;2023-07-13T07:42:16;7.07;;;2.10;;
7076;SDS011;3579;48.956;9.154;2023-07-13T07:44:42;8.20;;;1.87;;
7076;SDS011;3579;48.956;9.154;2023-07-13T07:47:08;5.83;;;2.10;;
7076;SDS011;3579;48.956;9.154;2023-07-13T07:49:35;5.27;;;1.87;;
7076;SDS011;3579;48.956;9.154;2023-07-13T07:52:01;5.47;;;1.77;;
7076;SDS011;3579;48.956;9.154;2023-07-13T07:54:27;4.43;;;1.77;;
7076;SDS011;3579;48.956;9.154;2023-07-13T07:56:53;6.50;;;1.90;;
7076;SDS011;3579;48.956;9.154;2023-07-13T07:59:19;5.77;;;1.97;;
7076;SDS011;3579;48.956;9.154;2023-07-13T08:01:46;3.83;;;1.70;;
7076;SDS011;3579;48.956;9.154;2023-07-13T08:04:13;4.37;;;1.40;;
7076;SDS011;3579;48.956;9.154;2023-07-13T08:06:39;2.77;;;1.47;;
7076;SDS011;3579;48.956;9.154;2023-07-13T08:09:05;4.80;;;1.70;;
7076;SDS011;3579;48.956;9.154;2023-07-13T08:11:33;3.30;;;1.60;;
7076;SDS011;3579;48.956;9.154;2023-07-13T08:13:59;2.53;;;1.80;;
7076;SDS011;3579;48.956;9.154;2023-07-13T08:16:26;3.97;;;1.90;;
7076;SDS011;3579;48.956;9.154;2023-07-13T08:18:52;3.40;;;1.47;;
7076;SDS011;3579;48.956;9.154;2023-07-13T08:21:18;3.70;;;1.50;;
7076;SDS011;3579;48.956;9.154;2023-07-13T08:23:47;3.17;;;1.67;;
7076;SDS011;3579;48.956;9.154;2023-07-13T08:26:13;3.47;;;1.50;;
7076;SDS011;3579;48.956;9.154;2023-07-13T08:28:40;3.20;;;1.50;;
7076;SDS011;3579;48.956;9.154;2023-07-13T08:31:06;3.17;;;1.60;;
7076;SDS011;3579;48.956;9.154;2023-07-13T08:33:34;2.77;;;1.47;;
7076;SDS011;3579;48.956;9.154;2023-07-13T08:36:01;5.17;;;1.60;;
7076;SDS011;3579;48.956;9.154;2023-07-13T08:38:27;4.73;;;1.50;;
7076;SDS011;3579;48.956;9.154;2023-07-13T08:40:55;2.83;;;1.50;;
7076;SDS011;3579;48.956;9.154;2023-07-13T08:43:25;2.17;;;1.53;;
7076;SDS011;3579;48.956;9.154;2023-07-13T08:46:03;4.87;;;1.80;;
7076;SDS011;3579;48.956;9.154;2023-07-13T08:54:11;3.77;;;1.60;;
7076;SDS011;3579;48.956;9.154;2023-07-13T08:56:38;3.30;;;1.60;;
7076;SDS011;3579;48.956;9.154;2023-07-13T08:59:06;2.77;;;1.67;;
7076;SDS011;3579;48.956;9.154;2023-07-13T09:04:25;3.07;;;1.70;;
7076;SDS011;3579;48.956;9.154;2023-07-13T09:07:17;9.87;;;1.80;;
7076;SDS011;3579;48.956;9.154;2023-07-13T09:10:09;5.23;;;1.90;;
7076;SDS011;3579;48.956;9.154;2023-07-13T09:15:43;7.10;;;1.77;;
7076;SDS011;3579;48.956;9.154;2023-07-13T09:18:13;7.20;;;2.00;;
7076;SDS011;3579;48.956;9.154;2023-07-13T09:20:53;3.07;;;1.67;;
7076;SDS011;3579;48.956;9.154;2023-07-13T09:23:23;5.47;;;1.90;;
7076;SDS011;3579;48.956;9.154;2023-07-13T09:25:52;5.67;;;1.70;;
7076;SDS011;3579;48.956;9.154;2023-07-13T09:28:28;3.67;;;1.90;;
7076;SDS011;3579;48.956;9.154;2023-07-13T09:31:33;5.80;;;1.80;;
7076;SDS011;3579;48.956;9.154;2023-07-13T09:33:59;5.00;;;1.93;;
7076;SDS011;3579;48.956;9.154;2023-07-13T09:36:30;4.10;;;1.80;;
7076;SDS011;3579;48.956;9.154;2023-07-13T09:47:19;4.27;;;2.00;;
7076;SDS011;3579;48.956;9.154;2023-07-13T09:49:58;5.77;;;1.97;;
7076;SDS011;3579;48.956;9.154;2023-07-13T09:52:26;6.87;;;1.93;;
7076;SDS011;3579;48.956;9.154;2023-07-13T09:54:54;7.73;;;2.10;;
7076;SDS011;3579;48.956;9.154;2023-07-13T09:57:25;4.83;;;1.90;;
7076;SDS011;3579;48.956;9.154;2023-07-13T09:59:54;7.37;;;1.90;;
7076;SDS011;3579;48.956;9.154;2023-07-13T10:04:57;6.70;;;1.97;;
7076;SDS011;3579;48.956;9.154;2023-07-13T10:07:32;5.73;;;1.87;;
7076;SDS011;3579;48.956;9.154;2023-07-13T10:10:03;5.73;;;2.23;;
7076;SDS011;3579;48.956;9.154;2023-07-13T10:12:38;8.73;;;2.10;;
7076;SDS011;3579;48.956;9.154;2023-07-13T10:15:07;5.80;;;2.10;;
7076;SDS011;3579;48.956;9.154;2023-07-13T10:17:44;3.70;;;1.67;;
7076;SDS011;3579;48.956;9.154;2023-07-13T10:20:11;3.50;;;1.80;;
7076;SDS011;3579;48.956;9.154;2023-07-13T10:25:21;7.97;;;1.93;;
7076;SDS011;3579;48.956;9.154;2023-07-13T10:27:50;5.30;;;2.00;;
7076;SDS011;3579;48.956;9.154;2023-07-13T10:30:23;6.37;;;1.97;;
7076;SDS011;3579;48.956;9.154;2023-07-13T10:33:00;5.33;;;1.83;;
7076;SDS011;3579;48.956;9.154;2023-07-13T10:35:29;5.00;;;1.70;;
7076;SDS011;3579;48.956;9.154;2023-07-13T10:37:58;7.63;;;2.10;;
7076;SDS011;3579;48.956;9.154;2023-07-13T10:40:38;4.20;;;1.70;;
7076;SDS011;3579;48.956;9.154;2023-07-13T10:43:15;5.77;;;1.60;;
7076;SDS011;3579;48.956;9.154;2023-07-13T10:45:54;5.50;;;1.70;;
7076;SDS011;3579;48.956;9.154;2023-07-13T10:48:21;4.80;;;1.90;;
7076;SDS011;3579;48.956;9.154;2023-07-13T10:50:50;5.73;;;1.97;;
7076;SDS011;3579;48.956;9.154;2023-07-13T10:53:27;4.83;;;1.80;;
7076;SDS011;3579;48.956;9.154;2023-07-13T11:01:11;5.20;;;2.10;;
7076;SDS011;3579;48.956;9.154;2023-07-13T11:09:00;5.10;;;2.00;;
7076;SDS011;3579;48.956;9.154;2023-07-13T11:11:49;4.73;;;1.80;;
7076;SDS011;3579;48.956;9.154;2023-07-13T11:22:52;3.67;;;2.00;;
7076;SDS011;3579;48.956;9.154;2023-07-13T11:25:39;4.53;;;1.63;;
7076;SDS011;3579;48.956;9.154;2023-07-13T11:30:40;2.83;;;1.60;;
7076;SDS011;3579;48.956;9.154;2023-07-13T11:38:39;3.27;;;1.70;;
7076;SDS011;3579;48.956;9.154;2023-07-13T11:41:15;4.03;;;1.50;;
7076;SDS011;3579;48.956;9.154;2023-07-13T11:43:45;2.00;;;1.53;;
7076;SDS011;3579;48.956;9.154;2023-07-13T11:46:25;4.53;;;1.87;;
7076;SDS011;3579;48.956;9.154;2023-07-13T11:48:53;1.70;;;1.37;;
7076;SDS011;3579;48.956;9.154;2023-07-13T11:54:06;2.50;;;1.57;;
7076;SDS011;3579;48.956;9.154;2023-07-13T11:56:49;2.57;;;1.43;;
7076;SDS011;3579;48.956;9.154;2023-07-13T11:59:16;2.77;;;1.57;;
7076;SDS011;3579;48.956;9.154;2023-07-13T12:01:44;2.70;;;1.50;;
7076;SDS011;3579;48.956;9.154;2023-07-13T12:07:03;2.67;;;1.50;;
7076;SDS011;3579;48.956;9.154;2023-07-13T12:09:37;2.37;;;1.37;;
7076;SDS011;3579;48.956;9.154;2023-07-13T12:12:08;2.73;;;1.40;;
7076;SDS011;3579;48.956;9.154;2023-07-13T12:14:42;2.93;;;1.40;;
7076;SDS011;3579;48.956;9.154;2023-07-13T12:17:09;2.27;;;1.50;;
7076;SDS011;3579;48.956;9.154;2023-07-13T12:19:42;3.90;;;1.60;;
7076;SDS011;3579;48.956;9.154;2023-07-13T12:22:08;3.37;;;1.70;;
7076;SDS011;3579;48.956;9.154;2023-07-13T12:24:40;3.70;;;1.50;;
7076;SDS011;3579;48.956;9.154;2023-07-13T12:27:21;2.47;;;1.63;;
7076;SDS011;3579;48.956;9.154;2023-07-13T12:30:00;2.03;;;1.30;;
7076;SDS011;3579;48.956;9.154;2023-07-13T12:32:31;3.20;;;1.53;;
7076;SDS011;3579;48.956;9.154;2023-07-13T12:35:12;2.10;;;1.57;;
7076;SDS011;3579;48.956;9.154;2023-07-13T12:37:47;2.40;;;1.30;;
7076;SDS011;3579;48.956;9.154;2023-07-13T12:40:17;2.20;;;1.40;;
7076;SDS011;3579;48.956;9.154;2023-07-13T12:42:46;2.87;;;1.40;;
7076;SDS011;3579;48.956;9.154;2023-07-13T12:45:25;2.30;;;1.30;;
7076;SDS011;3579;48.956;9.154;2023-07-13T12:47:54;2.77;;;1.50;;
7076;SDS011;3579;48.956;9.154;2023-07-13T12:50:30;1.80;;;1.20;;
7076;SDS011;3579;48.956;9.154;2023-07-13T12:53:02;3.07;;;1.50;;
7076;SDS011;3579;48.956;9.154;2023-07-13T12:55:40;1.97;;;1.50;;
7076;SDS011;3579;48.956;9.154;2023-07-13T12:58:16;2.93;;;1.63;;
7076;SDS011;3579;48.956;9.154;2023-07-13T13:00:50;1.60;;;1.40;;
7076;SDS011;3579;48.956;9.154;2023-07-13T13:03:32;1.77;;;1.33;;
7076;SDS011;3579;48.956;9.154;2023-07-13T13:06:17;2.87;;;1.60;;
7076;SDS011;3579;48.956;9.154;2023-07-13T13:08:49;2.43;;;1.30;;
7076;SDS011;3579;48.956;9.154;2023-07-13T13:11:17;2.80;;;1.57;;
7076;SDS011;3579;48.956;9.154;2023-07-13T13:13:44;1.87;;;1.30;;
7076;SDS011;3579;48.956;9.154;2023-07-13T13:16:14;2.33;;;1.50;;
7076;SDS011;3579;48.956;9.154;2023-07-13T13:18:45;1.90;;;1.40;;
7076;SDS011;3579;48.956;9.154;2023-07-13T13:21:11;2.00;;;1.37;;
7076;SDS011;3579;48.956;9.154;2023-07-13T13:23:37;1.77;;;1.23;;
7076;SDS011;3579;48.956;9.154;2023-07-13T13:26:05;2.10;;;1.30;;
7076;SDS011;3579;48.956;9.154;2023-07-13T13:28:35;2.13;;;1.40;;
7076;SDS011;3579;48.956;9.154;2023-07-13T13:31:01;1.90;;;1.40;;
7076;SDS011;3579;48.956;9.154;2023-07-13T13:33:27;2.13;;;1.50;;
7076;SDS011;3579;48.956;9.154;2023-07-13T13:35:54;2.47;;;1.57;;
7076;SDS011;3579;48.956;9.154;2023-07-13T13:38:20;2.63;;;1.40;;
7076;SDS011;3579;48.956;9.154;2023-07-13T13:40:51;2.50;;;1.47;;
7076;SDS011;3579;48.956;9.154;2023-07-13T13:43:17;2.33;;;1.50;;
7076;SDS011;3579;48.956;9.154;2023-07-13T13:45:46;2.57;;;1.43;;
7076;SDS011;3579;48.956;9.154;2023-07-13T13:48:18;2.13;;;1.30;;
7076;SDS011;3579;48.956;9.154;2023-07-13T13:50:47;2.00;;;1.30;;
7076;SDS011;3579;48.956;9.154;2023-07-13T13:53:14;2.27;;;1.37;;
7076;SDS011;3579;48.956;9.154;2023-07-13T13:55:41;1.73;;;1.30;;
7076;SDS011;3579;48.956;9.154;2023-07-13T13:58:10;2.43;;;1.40;;
7076;SDS011;3579;48.956;9.154;2023-07-13T14:00:37;1.77;;;1.27;;
7076;SDS011;3579;48.956;9.154;2023-07-13T14:03:03;2.20;;;1.70;;
7076;SDS011;3579;48.956;9.154;2023-07-13T14:05:32;2.07;;;1.40;;
7076;SDS011;3579;48.956;9.154;2023-07-13T14:07:58;1.80;;;1.40;;
7076;SDS011;3579;48.956;9.154;2023-07-13T14:10:25;1.90;;;1.30;;
7076;SDS011;3579;48.956;9.154;2023-07-13T14:12:53;2.60;;;1.40;;
7076;SDS011;3579;48.956;9.154;2023-07-13T14:15:22;4.03;;;1.43;;
7076;SDS011;3579;48.956;9.154;2023-07-13T14:17:51;2.13;;;1.50;;
7076;SDS011;3579;48.956;9.154;2023-07-13T14:20:18;2.57;;;1.50;;
7076;SDS011;3579;48.956;9.154;2023-07-13T14:22:46;2.13;;;1.50;;
7076;SDS011;3579;48.956;9.154;2023-07-13T14:25:12;4.43;;;1.60;;
7076;SDS011;3579;48.956;9.154;2023-07-13T14:27:40;2.60;;;1.40;;
7076;SDS011;3579;48.956;9.154;2023-07-13T14:30:13;2.10;;;1.30;;
7076;SDS011;3579;48.956;9.154;2023-07-13T14:32:41;4.10;;;1.47;;
7076;SDS011;3579;48.956;9.154;2023-07-13T14:35:10;1.93;;;1.37;;
7076;SDS011;3579;48.956;9.154;2023-07-13T14:37:37;1.87;;;1.40;;
7076;SDS011;3579;48.956;9.154;2023-07-13T14:40:14;1.60;;;1.37;;
7076;SDS011;3579;48.956;9.154;2023-07-13T14:42:50;2.17;;;1.47;;
7076;SDS011;3579;48.956;9.154;2023-07-13T14:45:17;1.57;;;1.30;;
7076;SDS011;3579;48.956;9.154;2023-07-13T14:47:45;2.23;;;1.53;;
7076;SDS011;3579;48.956;9.154;2023-07-13T14:50:19;1.60;;;1.20;;
7076;SDS011;3579;48.956;9.154;2023-07-13T14:53:09;1.80;;;1.50;;
7076;SDS011;3579;48.956;9.154;2023-07-13T14:55:36;1.97;;;1.43;;
7076;SDS011;3579;48.956;9.154;2023-07-13T14:58:02;1.70;;;1.50;;
7076;SDS011;3579;48.956;9.154;2023-07-13T15:00:28;1.77;;;1.20;;
7076;SDS011;3579;48.956;9.154;2023-07-13T15:02:57;1.73;;;1.40;;
7076;SDS011;3579;48.956;9.154;2023-07-13T15:05:25;1.70;;;1.43;;
7076;SDS011;3579;48.956;9.154;2023-07-13T15:07:59;2.67;;;1.63;;
7076;SDS011;3579;48.956;9.154;2023-07-13T15:10:29;2.27;;;1.27;;
7076;SDS011;3579;48.956;9.154;2023-07-13T15:13:00;2.73;;;1.40;;
7076;SDS011;3579;48.956;9.154;2023-07-13T15:15:38;3.70;;;1.30;;
7076;SDS011;3579;48.956;9.154;2023-07-13T15:18:07;1.70;;;1.50;;
7076;SDS011;3579;48.956;9.154;2023-07-13T15:20:36;2.17;;;1.33;;
7076;SDS011;3579;48.956;9.154;2023-07-13T15:23:02;3.70;;;1.50;;
7076;SDS011;3579;48.956;9.154;2023-07-13T15:25:29;2.13;;;1.40;;
7076;SDS011;3579;48.956;9.154;2023-07-13T15:27:58;2.20;;;1.30;;
7076;SDS011;3579;48.956;9.154;2023-07-13T15:30:27;1.60;;;1.30;;
7076;SDS011;3579;48.956;9.154;2023-07-13T15:32:56;1.50;;;1.23;;
7076;SDS011;3579;48.956;9.154;2023-07-13T15:35:27;1.77;;;1.30;;
7076;SDS011;3579;48.956;9.154;2023-07-13T15:37:53;2.47;;;1.50;;
7076;SDS011;3579;48.956;9.154;2023-07-13T15:40:20;1.90;;;1.40;;
7076;SDS011;3579;48.956;9.154;2023-07-13T15:42:48;1.60;;;1.20;;
7076;SDS011;3579;48.956;9.154;2023-07-13T15:45:21;2.30;;;1.50;;
7076;SDS011;3579;48.956;9.154;2023-07-13T15:47:50;1.40;;;1.30;;
7076;SDS011;3579;48.956;9.154;2023-07-13T15:50:20;1.47;;;1.30;;
7076;SDS011;3579;48.956;9.154;2023-07-13T15:52:49;1.97;;;1.23;;
7076;SDS011;3579;48.956;9.154;2023-07-13T15:55:17;1.60;;;1.20;;
7076;SDS011;3579;48.956;9.154;2023-07-13T15:57:48;2.00;;;1.30;;
7076;SDS011;3579;48.956;9.154;2023-07-13T16:00:20;1.73;;;1.40;;
7076;SDS011;3579;48.956;9.154;2023-07-13T16:02:51;2.17;;;1.30;;
7076;SDS011;3579;48.956;9.154;2023-07-13T16:05:18;1.83;;;1.23;;
7076;SDS011;3579;48.956;9.154;2023-07-13T16:07:47;1.70;;;1.27;;
7076;SDS011;3579;48.956;9.154;2023-07-13T16:10:16;1.87;;;1.20;;
7076;SDS011;3579;48.956;9.154;2023-07-13T16:12:45;1.53;;;1.13;;
7076;SDS011;3579;48.956;9.154;2023-07-13T16:15:17;2.03;;;1.30;;
7076;SDS011;3579;48.956;9.154;2023-07-13T16:17:46;2.10;;;1.20;;
7076;SDS011;3579;48.956;9.154;2023-07-13T16:20:13;1.30;;;1.20;;
7076;SDS011;3579;48.956;9.154;2023-07-13T16:22:41;1.77;;;1.30;;